createdAt,value
2023-05-20T00:00:18.241Z,1.60
2023-05-20T00:02:26.974Z,1.70
2023-05-20T00:04:36.519Z,1.57
2023-05-20T00:06:45.251Z,1.60
2023-05-20T00:08:55.966Z,1.47
2023-05-20T00:11:05.919Z,1.47
2023-05-20T00:13:15.182Z,1.43
2023-05-20T00:15:26.485Z,1.43
2023-05-20T00:17:35.592Z,1.27
2023-05-20T00:19:44.251Z,1.27
2023-05-20T00:21:53.196Z,1.40
2023-05-20T00:24:02.769Z,1.40
2023-05-20T00:26:11.951Z,1.50
2023-05-20T00:28:21.747Z,1.47
2023-05-20T00:30:33.119Z,1.37
2023-05-20T00:32:42.123Z,1.53
2023-05-20T00:34:58.575Z,1.30
2023-05-20T00:37:07.356Z,1.57
2023-05-20T00:39:15.905Z,3.10
2023-05-20T00:41:25.027Z,2.40
2023-05-20T00:43:33.590Z,1.17
2023-05-20T00:45:44.123Z,1.80
2023-05-20T00:47:53.153Z,1.33
2023-05-20T00:50:02.391Z,1.60
2023-05-20T00:52:11.641Z,1.80
2023-05-20T00:54:21.714Z,1.50
2023-05-20T00:56:31.732Z,1.67
2023-05-20T00:58:40.703Z,1.50
2023-05-20T01:00:50.821Z,1.50
2023-05-20T01:03:00.204Z,1.50
2023-05-20T01:05:10.953Z,1.60
2023-05-20T01:07:20.400Z,1.67
2023-05-20T01:09:29.028Z,1.70
2023-05-20T01:11:39.840Z,1.80
2023-05-20T01:13:50.065Z,1.50
2023-05-20T01:16:01.151Z,1.80
2023-05-20T01:18:11.792Z,1.47
2023-05-20T01:20:21.003Z,1.43
2023-05-20T01:22:32.502Z,1.73
2023-05-20T01:24:41.907Z,1.50
2023-05-20T01:26:50.563Z,1.50
2023-05-20T01:29:04.372Z,1.53
2023-05-20T01:31:15.199Z,1.73
2023-05-20T01:33:26.925Z,1.93
2023-05-20T01:35:37.568Z,1.73
2023-05-20T01:37:48.209Z,1.60
2023-05-20T01:39:57.710Z,1.43
2023-05-20T01:42:07.884Z,1.60
2023-05-20T01:44:17.673Z,1.40
2023-05-20T01:46:26.320Z,2.10
2023-05-20T01:48:35.583Z,1.93
2023-05-20T01:50:44.793Z,1.60
2023-05-20T01:52:55.185Z,1.67
2023-05-20T01:55:04.108Z,1.70
2023-05-20T01:57:13.166Z,1.70
2023-05-20T01:59:21.786Z,1.60
2023-05-20T02:01:30.780Z,1.67
2023-05-20T02:03:40.250Z,1.60
2023-05-20T02:05:49.110Z,1.47
2023-05-20T02:07:59.404Z,1.70
2023-05-20T02:10:09.263Z,1.57
2023-05-20T02:12:18.069Z,1.53
2023-05-20T02:14:26.655Z,1.60
2023-05-20T02:16:35.968Z,1.60
2023-05-20T02:18:44.723Z,1.50
2023-05-20T02:20:53.745Z,1.53
2023-05-20T02:23:05.905Z,1.47
2023-05-20T02:25:15.015Z,1.30
2023-05-20T02:27:23.955Z,1.60
2023-05-20T02:29:33.271Z,1.73
2023-05-20T02:31:42.203Z,1.60
2023-05-20T02:33:51.294Z,1.33
2023-05-20T02:36:00.419Z,1.57
2023-05-20T02:38:11.037Z,1.40
2023-05-20T02:40:19.730Z,1.63
2023-05-20T02:42:28.441Z,1.63
2023-05-20T02:44:37.157Z,1.50
2023-05-20T02:46:45.941Z,1.40
2023-05-20T02:48:54.939Z,1.67
2023-05-20T02:51:03.688Z,1.40
2023-05-20T02:53:13.960Z,1.70
2023-05-20T02:55:23.871Z,1.67
2023-05-20T02:57:33.244Z,1.60
2023-05-20T02:59:42.576Z,1.50
2023-05-20T03:01:51.663Z,1.53
2023-05-20T03:04:00.914Z,1.80
2023-05-20T03:06:09.748Z,1.47
2023-05-20T03:08:21.177Z,1.60
2023-05-20T03:10:30.081Z,1.50
2023-05-20T03:12:39.608Z,1.60
2023-05-20T03:14:48.399Z,1.40
2023-05-20T03:16:57.328Z,1.60
2023-05-20T03:19:06.683Z,1.50
2023-05-20T03:21:15.319Z,1.63
2023-05-20T03:23:26.209Z,2.00
2023-05-20T03:25:35.671Z,1.67
2023-05-20T03:27:44.792Z,1.43
2023-05-20T03:29:55.985Z,1.60
2023-05-20T03:32:05.072Z,1.80
2023-05-20T03:34:14.435Z,1.77
2023-05-20T03:36:23.167Z,1.90
2023-05-20T03:38:33.670Z,1.67
2023-05-20T03:40:42.280Z,1.77
2023-05-20T03:42:52.993Z,1.80
2023-05-20T03:45:02.219Z,1.63
2023-05-20T03:47:11.342Z,1.60
2023-05-20T03:49:19.969Z,1.60
2023-05-20T03:51:28.722Z,1.70
2023-05-20T03:53:39.245Z,1.53
2023-05-20T03:55:48.321Z,1.67
2023-05-20T03:57:57.387Z,1.80
2023-05-20T04:00:11.170Z,2.00
2023-05-20T04:02:20.160Z,1.40
2023-05-20T04:04:28.934Z,1.90
2023-05-20T04:06:37.695Z,2.10
2023-05-20T04:08:48.521Z,2.07
2023-05-20T04:11:00.015Z,2.10
2023-05-20T04:13:09.151Z,1.63
2023-05-20T04:15:18.206Z,1.70
2023-05-20T04:17:28.732Z,1.50
2023-05-20T04:19:38.488Z,1.60
2023-05-20T04:21:47.709Z,1.30
2023-05-20T04:23:58.457Z,1.40
2023-05-20T04:26:07.679Z,1.30
2023-05-20T04:28:16.784Z,1.17
2023-05-20T04:30:25.930Z,1.20
2023-05-20T04:32:36.235Z,1.00
2023-05-20T04:34:45.643Z,1.13
2023-05-20T04:36:54.654Z,1.20
2023-05-20T04:39:05.317Z,1.30
2023-05-20T04:41:16.392Z,1.20
2023-05-20T04:43:25.305Z,1.60
2023-05-20T04:45:35.940Z,1.03
2023-05-20T04:47:46.157Z,1.20
2023-05-20T04:49:57.754Z,1.40
2023-05-20T04:52:07.135Z,1.00
2023-05-20T04:54:18.816Z,1.00
2023-05-20T04:56:27.963Z,1.33
2023-05-20T04:58:36.572Z,1.00
2023-05-20T05:00:45.720Z,1.10
2023-05-20T05:02:54.368Z,1.17
2023-05-20T05:05:03.874Z,1.30
2023-05-20T05:07:12.583Z,1.40
2023-05-20T05:09:23.307Z,1.20
2023-05-20T05:11:32.021Z,1.30
2023-05-20T05:13:40.649Z,1.10
2023-05-20T05:15:49.913Z,1.20
2023-05-20T05:17:59.172Z,1.27
2023-05-20T05:20:08.748Z,1.10
2023-05-20T05:22:17.474Z,1.30
2023-05-20T05:24:29.858Z,1.13
2023-05-20T05:26:39.022Z,1.47
2023-05-20T05:28:48.166Z,1.20
2023-05-20T05:30:57.476Z,1.10
2023-05-20T05:33:06.482Z,1.40
2023-05-20T05:35:15.687Z,1.43
2023-05-20T05:37:25.278Z,1.37
2023-05-20T05:39:38.088Z,1.20
2023-05-20T05:41:47.496Z,1.13
2023-05-20T05:43:57.057Z,1.30
2023-05-20T05:46:06.197Z,1.30
2023-05-20T05:48:15.145Z,1.17
2023-05-20T05:50:23.760Z,1.10
2023-05-20T05:52:32.368Z,0.90
2023-05-20T05:54:42.562Z,1.30
2023-05-20T05:56:51.469Z,1.60
2023-05-20T05:59:00.407Z,1.20
2023-05-20T06:01:09.758Z,1.30
2023-05-20T06:03:19.235Z,1.23
2023-05-20T06:05:29.769Z,1.30
2023-05-20T06:07:39.360Z,1.33
2023-05-20T06:09:50.019Z,1.50
2023-05-20T06:11:58.740Z,1.20
2023-05-20T06:14:08.266Z,1.37
2023-05-20T06:16:17.087Z,1.10
2023-05-20T06:18:25.793Z,1.10
2023-05-20T06:20:34.944Z,1.20
2023-05-20T06:22:43.650Z,1.20
2023-05-20T06:24:54.147Z,1.17
2023-05-20T06:27:03.251Z,1.20
2023-05-20T06:29:12.645Z,1.40
2023-05-20T06:31:21.330Z,1.50
2023-05-20T06:33:30.621Z,1.27
2023-05-20T06:35:39.723Z,1.27
2023-05-20T06:37:48.760Z,1.20
2023-05-20T06:39:59.727Z,1.43
2023-05-20T06:42:08.447Z,1.53
2023-05-20T06:44:17.052Z,1.27
2023-05-20T06:46:25.742Z,1.40
2023-05-20T06:48:34.618Z,1.30
2023-05-20T06:50:43.798Z,1.40
2023-05-20T06:52:52.845Z,1.30
2023-05-20T06:55:03.146Z,1.30
2023-05-20T06:57:12.459Z,1.23
2023-05-20T06:59:21.806Z,1.20
2023-05-20T07:01:30.429Z,1.20
2023-05-20T07:03:39.463Z,1.40
2023-05-20T07:05:48.809Z,1.30
2023-05-20T07:07:57.739Z,1.37
2023-05-20T07:10:08.882Z,1.13
2023-05-20T07:12:17.689Z,1.40
2023-05-20T07:14:26.256Z,1.43
2023-05-20T07:16:35.313Z,1.33
2023-05-20T07:18:44.396Z,1.23
2023-05-20T07:20:53.441Z,1.40
2023-05-20T07:23:04.324Z,1.70
2023-05-20T07:25:14.524Z,1.33
2023-05-20T07:27:23.416Z,1.43
2023-05-20T07:29:32.182Z,1.10
2023-05-20T07:31:41.152Z,1.50
2023-05-20T07:33:49.792Z,1.47
2023-05-20T07:35:59.023Z,1.37
2023-05-20T07:38:07.936Z,1.30
2023-05-20T07:40:18.914Z,1.40
2023-05-20T07:42:27.579Z,1.50
2023-05-20T07:44:36.204Z,1.50
2023-05-20T07:46:45.006Z,1.67
2023-05-20T07:48:53.978Z,1.40
2023-05-20T07:51:02.784Z,1.20
2023-05-20T07:53:12.168Z,1.40
2023-05-20T07:55:23.166Z,1.50
2023-05-20T07:57:32.076Z,1.43
2023-05-20T07:59:41.226Z,1.20
2023-05-20T08:01:50.393Z,1.50
2023-05-20T08:03:59.392Z,1.50
2023-05-20T08:06:08.697Z,1.50
2023-05-20T08:08:17.413Z,1.27
2023-05-20T08:10:27.975Z,1.33
2023-05-20T08:12:36.587Z,1.27
2023-05-20T08:14:45.732Z,1.30
2023-05-20T08:16:55.083Z,1.27
2023-05-20T08:19:04.372Z,1.47
2023-05-20T08:21:14.058Z,1.77
2023-05-20T08:23:23.207Z,1.60
2023-05-20T08:25:34.260Z,1.73
2023-05-20T08:27:43.257Z,1.13
2023-05-20T08:29:52.101Z,1.50
2023-05-20T08:32:01.057Z,1.40
2023-05-20T08:34:10.440Z,1.50
2023-05-20T08:36:19.643Z,1.50
2023-05-20T08:38:28.672Z,1.57
2023-05-20T08:40:39.648Z,1.40
2023-05-20T08:42:50.590Z,1.50
2023-05-20T08:45:00.389Z,1.63
2023-05-20T08:47:10.393Z,1.60
2023-05-20T08:49:19.198Z,1.70
2023-05-20T08:51:29.194Z,1.50
2023-05-20T08:53:37.839Z,1.40
2023-05-20T08:55:51.128Z,1.50
2023-05-20T08:58:00.357Z,1.47
2023-05-20T09:00:13.794Z,1.57
2023-05-20T09:02:23.298Z,1.30
2023-05-20T09:04:32.096Z,1.50
2023-05-20T09:06:47.157Z,1.60
2023-05-20T09:08:56.156Z,1.20
2023-05-20T09:11:06.899Z,1.60
2023-05-20T09:13:16.097Z,1.53
2023-05-20T09:15:25.659Z,1.60
2023-05-20T09:17:35.046Z,1.50
2023-05-20T09:19:44.503Z,1.37
2023-05-20T09:21:55.620Z,1.60
2023-05-20T09:24:04.860Z,1.40
2023-05-20T09:26:15.077Z,1.50
2023-05-20T09:28:25.656Z,1.50
2023-05-20T09:30:34.909Z,1.37
2023-05-20T09:32:43.865Z,1.20
2023-05-20T09:34:52.873Z,1.20
2023-05-20T09:37:01.877Z,1.90
2023-05-20T09:39:11.750Z,1.33
2023-05-20T09:41:22.786Z,1.40
2023-05-20T09:43:31.676Z,1.70
2023-05-20T09:45:40.642Z,1.47
2023-05-20T09:47:50.082Z,1.50
2023-05-20T09:49:59.095Z,1.70
2023-05-20T09:52:08.103Z,1.60
2023-05-20T09:54:18.391Z,1.40
2023-05-20T09:56:29.746Z,1.40
2023-05-20T09:58:38.848Z,1.43
2023-05-20T10:00:47.696Z,1.40
2023-05-20T10:02:56.916Z,1.30
2023-05-20T10:05:07.274Z,1.40
2023-05-20T10:07:41.715Z,1.40
2023-05-20T10:09:56.617Z,1.40
2023-05-20T10:12:09.953Z,1.60
2023-05-20T10:14:25.886Z,1.50
2023-05-20T10:16:37.821Z,1.20
2023-05-20T10:18:53.064Z,1.50
2023-05-20T10:21:02.096Z,1.23
2023-05-20T10:23:11.291Z,1.20
2023-05-20T10:25:26.925Z,1.17
2023-05-20T10:27:46.735Z,1.50
2023-05-20T10:29:56.850Z,1.23
2023-05-20T10:32:05.702Z,1.30
2023-05-20T10:34:17.992Z,1.90
2023-05-20T10:36:28.155Z,1.40
2023-05-20T10:38:37.242Z,1.37
2023-05-20T10:40:46.373Z,1.40
2023-05-20T10:43:01.199Z,1.40
2023-05-20T10:45:10.666Z,1.50
2023-05-20T10:47:25.222Z,1.30
2023-05-20T10:49:37.131Z,1.43
2023-05-20T10:51:47.136Z,1.30
2023-05-20T10:53:56.924Z,1.50
2023-05-20T10:56:05.793Z,1.20
2023-05-20T10:58:16.596Z,1.50
2023-05-20T11:00:26.133Z,1.50
2023-05-20T11:02:35.296Z,1.30
2023-05-20T11:04:45.125Z,1.50
2023-05-20T11:06:55.361Z,1.30
2023-05-20T11:09:07.169Z,1.20
2023-05-20T11:11:17.245Z,1.30
2023-05-20T11:13:28.273Z,1.50
2023-05-20T11:15:38.774Z,1.30
2023-05-20T11:17:54.731Z,1.33
2023-05-20T11:20:05.101Z,1.43
2023-05-20T11:22:13.718Z,1.50
2023-05-20T11:24:27.233Z,1.33
2023-05-20T11:26:36.879Z,1.30
2023-05-20T11:28:47.598Z,1.20
2023-05-20T11:30:58.431Z,1.40
2023-05-20T11:33:08.214Z,1.40
2023-05-20T11:35:25.263Z,1.40
2023-05-20T11:37:34.320Z,1.40
2023-05-20T11:39:43.364Z,1.17
2023-05-20T11:41:52.403Z,1.67
2023-05-20T11:44:03.014Z,1.50
2023-05-20T11:46:12.160Z,1.67
2023-05-20T11:48:21.267Z,1.50
2023-05-20T11:50:30.318Z,1.50
2023-05-20T11:52:41.903Z,1.60
2023-05-20T11:54:53.741Z,1.60
2023-05-20T11:57:02.818Z,1.60
2023-05-20T11:59:15.218Z,1.63
2023-05-20T12:01:24.710Z,1.90
2023-05-20T12:03:33.686Z,1.37
2023-05-20T12:05:43.334Z,1.20
2023-05-20T12:07:52.439Z,1.40
2023-05-20T12:10:01.635Z,1.47
2023-05-20T12:12:14.167Z,1.50
2023-05-20T12:14:25.046Z,1.67
2023-05-20T12:16:35.046Z,1.73
2023-05-20T12:18:44.194Z,1.63
2023-05-20T12:20:52.941Z,1.30
2023-05-20T12:23:01.958Z,1.43
2023-05-20T12:25:12.609Z,1.40
2023-05-20T12:27:21.793Z,1.60
2023-05-20T12:29:32.621Z,1.50
2023-05-20T12:31:41.779Z,1.50
2023-05-20T12:33:50.916Z,1.53
2023-05-20T12:36:00.128Z,1.40
2023-05-20T12:38:09.168Z,1.63
2023-05-20T12:40:18.353Z,1.70
2023-05-20T12:42:27.402Z,1.30
2023-05-20T12:44:37.544Z,1.60
2023-05-20T12:46:46.586Z,1.20
2023-05-20T12:48:55.737Z,1.30
2023-05-20T12:51:13.019Z,1.30
2023-05-20T12:53:22.155Z,1.50
2023-05-20T12:55:31.554Z,1.40
2023-05-20T12:57:40.527Z,1.07
2023-05-20T12:59:49.829Z,1.40
2023-05-20T13:01:59.652Z,1.40
2023-05-20T13:04:08.741Z,1.50
2023-05-20T13:06:19.308Z,1.40
2023-05-20T13:08:28.737Z,1.23
2023-05-20T13:10:37.914Z,1.40
2023-05-20T13:12:47.096Z,1.30
2023-05-20T13:14:56.383Z,1.10
2023-05-20T13:17:05.548Z,1.33
2023-05-20T13:19:14.391Z,1.23
2023-05-20T13:21:25.571Z,1.23
2023-05-20T13:23:34.130Z,1.33
2023-05-20T13:25:42.961Z,1.30
2023-05-20T13:27:52.409Z,1.30
2023-05-20T13:30:01.928Z,1.20
2023-05-20T13:32:11.440Z,1.30
2023-05-20T13:34:20.338Z,1.20
2023-05-20T13:36:31.079Z,1.07
2023-05-20T13:38:40.330Z,1.17
2023-05-20T13:40:49.186Z,1.50
2023-05-20T13:42:58.585Z,1.37
2023-05-20T13:45:07.546Z,1.40
2023-05-20T13:47:16.182Z,1.30
2023-05-20T13:49:25.700Z,1.30
2023-05-20T13:51:36.527Z,1.30
2023-05-20T13:53:45.947Z,1.20
2023-05-20T13:55:54.544Z,1.47
2023-05-20T13:58:03.381Z,1.30
2023-05-20T14:00:13.639Z,1.30
2023-05-20T14:02:23.063Z,1.50
2023-05-20T14:04:38.149Z,1.43
2023-05-20T14:06:48.411Z,1.33
2023-05-20T14:08:58.717Z,1.60
2023-05-20T14:11:07.970Z,1.23
2023-05-20T14:13:16.928Z,1.60
2023-05-20T14:15:26.096Z,1.20
2023-05-20T14:17:35.714Z,1.50
2023-05-20T14:19:44.860Z,1.43
2023-05-20T14:21:55.003Z,1.40
2023-05-20T14:24:03.585Z,1.30
2023-05-20T14:26:12.710Z,1.33
2023-05-20T14:28:21.773Z,1.23
2023-05-20T14:30:30.860Z,1.33
2023-05-20T14:32:39.936Z,1.30
2023-05-20T14:34:48.689Z,1.53
2023-05-20T14:36:58.957Z,1.40
2023-05-20T14:39:07.701Z,1.60
2023-05-20T14:41:16.565Z,1.70
2023-05-20T14:43:26.756Z,1.60
2023-05-20T14:45:35.857Z,1.80
2023-05-20T14:47:44.897Z,1.67
2023-05-20T14:49:53.568Z,1.40
2023-05-20T14:52:03.678Z,1.40
2023-05-20T14:54:13.985Z,1.40
2023-05-20T14:56:23.893Z,1.50
2023-05-20T14:58:32.828Z,1.60
2023-05-20T15:00:41.627Z,1.40
2023-05-20T15:02:50.560Z,1.70
2023-05-20T15:04:59.329Z,2.30
2023-05-20T15:07:10.652Z,1.40
2023-05-20T15:09:19.256Z,1.40
2023-05-20T15:11:27.924Z,1.77
2023-05-20T15:13:38.307Z,1.83
2023-05-20T15:15:49.249Z,1.70
2023-05-20T15:17:58.751Z,1.90
2023-05-20T15:20:08.348Z,1.67
2023-05-20T15:22:19.462Z,1.60
2023-05-20T15:24:28.879Z,1.70
2023-05-20T15:26:37.822Z,1.70
2023-05-20T15:28:46.737Z,2.10
2023-05-20T15:30:57.346Z,1.80
2023-05-20T15:33:06.886Z,1.87
2023-05-20T15:35:16.118Z,1.73
2023-05-20T15:37:26.558Z,1.90
2023-05-20T15:39:39.389Z,1.70
2023-05-20T15:41:50.460Z,1.77
2023-05-20T15:43:59.052Z,2.00
2023-05-20T15:46:08.326Z,1.93
2023-05-20T15:48:17.372Z,3.00
2023-05-20T15:50:26.332Z,2.23
2023-05-20T15:52:37.223Z,2.93
2023-05-20T15:54:46.102Z,2.63
2023-05-20T15:56:54.721Z,2.57
2023-05-20T15:59:03.322Z,2.40
2023-05-20T16:01:12.076Z,2.47
2023-05-20T16:03:21.101Z,2.50
2023-05-20T16:05:30.178Z,2.10
2023-05-20T16:07:41.050Z,1.90
2023-05-20T16:09:49.875Z,1.60
2023-05-20T16:11:58.715Z,1.67
2023-05-20T16:14:07.495Z,1.57
2023-05-20T16:16:17.131Z,2.00
2023-05-20T16:18:26.319Z,2.47
2023-05-20T16:20:35.504Z,1.90
2023-05-20T16:22:46.387Z,2.17
2023-05-20T16:24:55.648Z,2.90
2023-05-20T16:27:04.137Z,2.93
2023-05-20T16:29:15.667Z,2.40
2023-05-20T16:31:26.195Z,2.27
2023-05-20T16:33:34.821Z,2.27
2023-05-20T16:35:43.818Z,2.37
2023-05-20T16:37:54.253Z,2.40
2023-05-20T16:40:03.807Z,1.80
2023-05-20T16:42:12.727Z,2.27
2023-05-20T16:44:21.711Z,2.60
2023-05-20T16:46:30.724Z,2.13
2023-05-20T16:48:39.781Z,2.30
2023-05-20T16:50:48.610Z,2.73
2023-05-20T16:52:59.875Z,2.47
2023-05-20T16:55:09.076Z,2.00
2023-05-20T16:57:19.035Z,2.30
2023-05-20T16:59:30.527Z,2.10
2023-05-20T17:01:39.316Z,2.70
2023-05-20T17:03:48.195Z,2.33
2023-05-20T17:05:57.735Z,2.53
2023-05-20T17:08:08.460Z,2.27
2023-05-20T17:10:17.142Z,2.33
2023-05-20T17:12:26.418Z,2.40
2023-05-20T17:14:35.373Z,2.60
2023-05-20T17:16:43.953Z,2.33
2023-05-20T17:18:53.749Z,2.13
2023-05-20T17:21:02.912Z,2.03
2023-05-20T17:23:15.151Z,2.20
2023-05-20T17:25:23.902Z,2.53
2023-05-20T17:27:33.164Z,2.10
2023-05-20T17:29:42.218Z,2.53
2023-05-20T17:31:51.049Z,2.13
2023-05-20T17:34:00.300Z,2.17
2023-05-20T17:36:09.375Z,2.00
2023-05-20T17:38:22.590Z,1.70
2023-05-20T17:40:31.537Z,1.87
2023-05-20T17:42:40.116Z,1.90
2023-05-20T17:44:48.788Z,1.90
2023-05-20T17:46:57.455Z,1.80
2023-05-20T17:49:06.270Z,1.63
2023-05-20T17:51:16.623Z,1.57
2023-05-20T17:53:26.949Z,1.67
2023-05-20T17:55:36.767Z,1.60
2023-05-20T17:57:45.762Z,1.40
2023-05-20T17:59:55.339Z,1.50
2023-05-20T18:02:06.391Z,1.50
2023-05-20T18:04:15.611Z,1.50
2023-05-20T18:06:26.579Z,1.43
2023-05-20T18:08:36.905Z,1.37
2023-05-20T18:10:45.929Z,1.27
2023-05-20T18:12:54.685Z,1.30
2023-05-20T18:15:03.842Z,1.27
2023-05-20T18:17:12.872Z,1.40
2023-05-20T18:19:22.756Z,1.53
2023-05-20T18:21:31.734Z,1.57
2023-05-20T18:23:42.305Z,1.20
2023-05-20T18:25:51.915Z,1.17
2023-05-20T18:28:00.680Z,1.60
2023-05-20T18:30:10.134Z,1.20
2023-05-20T18:32:19.221Z,1.33
2023-05-20T18:34:28.400Z,1.67
2023-05-20T18:36:37.356Z,1.57
2023-05-20T18:38:47.948Z,1.20
2023-05-20T18:40:56.958Z,1.30
2023-05-20T18:43:05.759Z,1.33
2023-05-20T18:45:14.727Z,1.33
2023-05-20T18:47:23.714Z,1.40
2023-05-20T18:49:32.537Z,1.20
2023-05-20T18:51:41.630Z,1.53
2023-05-20T18:53:51.876Z,1.47
2023-05-20T18:56:03.410Z,1.37
2023-05-20T18:58:12.741Z,1.50
2023-05-20T19:00:21.755Z,1.23
2023-05-20T19:02:30.743Z,1.40
2023-05-20T19:04:39.803Z,1.30
2023-05-20T19:06:48.525Z,1.30
2023-05-20T19:08:58.583Z,1.50
2023-05-20T19:11:07.444Z,1.40
2023-05-20T19:13:16.180Z,1.43
2023-05-20T19:15:25.091Z,1.33
2023-05-20T19:17:33.885Z,1.50
2023-05-20T19:19:43.713Z,1.40
2023-05-20T19:21:52.949Z,1.40
2023-05-20T19:24:03.640Z,1.30
2023-05-20T19:26:12.912Z,1.83
2023-05-20T19:28:21.630Z,1.40
2023-05-20T19:30:30.696Z,1.23
2023-05-20T19:32:39.943Z,1.40
2023-05-20T19:34:48.716Z,1.30
2023-05-20T19:36:58.162Z,1.27
2023-05-20T19:39:08.872Z,1.40
2023-05-20T19:41:17.598Z,1.20
2023-05-20T19:43:26.664Z,1.30
2023-05-20T19:45:36.773Z,1.23
2023-05-20T19:47:46.063Z,1.37
2023-05-20T19:49:54.971Z,1.87
2023-05-20T19:52:04.029Z,1.60
2023-05-20T19:54:14.759Z,1.30
2023-05-20T19:56:24.230Z,1.40
2023-05-20T19:58:33.174Z,1.40
2023-05-20T20:00:41.921Z,1.20
2023-05-20T20:02:51.488Z,1.47
2023-05-20T20:05:01.316Z,1.40
2023-05-20T20:07:10.697Z,1.43
2023-05-20T20:09:21.252Z,1.67
2023-05-20T20:11:30.281Z,1.33
2023-05-20T20:13:39.116Z,1.50
2023-05-20T20:15:48.069Z,1.20
2023-05-20T20:17:56.724Z,1.43
2023-05-20T20:20:10.351Z,1.50
2023-05-20T20:22:19.685Z,1.50
2023-05-20T20:24:30.603Z,1.27
2023-05-20T20:26:40.140Z,1.50
2023-05-20T20:28:48.872Z,1.30
2023-05-20T20:30:57.879Z,1.27
2023-05-20T20:33:09.578Z,1.30
2023-05-20T20:35:18.835Z,1.37
2023-05-20T20:37:28.083Z,1.60
2023-05-20T20:39:38.679Z,1.63
2023-05-20T20:41:50.694Z,1.47
2023-05-20T20:44:00.308Z,1.70
2023-05-20T20:46:09.773Z,1.30
2023-05-20T20:48:19.096Z,1.30
2023-05-20T20:50:28.394Z,1.20
2023-05-20T20:52:38.895Z,1.40
2023-05-20T20:54:49.372Z,1.33
2023-05-20T20:57:00.033Z,1.60
2023-05-20T20:59:10.352Z,1.60
2023-05-20T21:01:19.090Z,1.30
2023-05-20T21:03:27.776Z,1.57
2023-05-20T21:05:37.534Z,1.50
2023-05-20T21:07:50.369Z,1.30
2023-05-20T21:10:00.898Z,1.70
2023-05-20T21:12:09.821Z,1.57
2023-05-20T21:14:18.663Z,1.53
2023-05-20T21:16:28.018Z,1.90
2023-05-20T21:18:36.623Z,1.50
2023-05-20T21:20:45.222Z,1.40
2023-05-20T21:22:54.218Z,1.70
2023-05-20T21:25:04.951Z,1.43
2023-05-20T21:27:14.161Z,1.30
2023-05-20T21:29:22.955Z,1.47
2023-05-20T21:31:32.095Z,1.20
2023-05-20T21:33:40.784Z,1.93
2023-05-20T21:35:49.916Z,1.70
2023-05-20T21:37:58.985Z,1.53
2023-05-20T21:40:10.944Z,1.63
2023-05-20T21:42:20.037Z,1.50
2023-05-20T21:44:28.599Z,1.60
2023-05-20T21:46:37.770Z,1.37
2023-05-20T21:48:46.912Z,1.40
2023-05-20T21:50:56.485Z,1.70
2023-05-20T21:53:05.982Z,1.60
2023-05-20T21:55:17.415Z,1.60
2023-05-20T21:57:26.467Z,1.50
2023-05-20T21:59:35.198Z,1.60
2023-05-20T22:01:44.218Z,1.47
2023-05-20T22:03:53.393Z,1.60
2023-05-20T22:06:03.509Z,1.67
2023-05-20T22:08:12.655Z,1.50
2023-05-20T22:10:23.858Z,1.87
2023-05-20T22:12:36.068Z,1.53
2023-05-20T22:14:44.750Z,1.60
2023-05-20T22:16:53.692Z,1.97
2023-05-20T22:19:02.717Z,1.53
2023-05-20T22:21:11.779Z,1.60
2023-05-20T22:23:20.720Z,1.90
2023-05-20T22:25:31.868Z,1.77
2023-05-20T22:27:44.572Z,1.50
2023-05-20T22:29:53.348Z,1.70
2023-05-20T22:32:02.405Z,1.90
2023-05-20T22:34:11.197Z,1.87
2023-05-20T22:36:20.192Z,1.70
2023-05-20T22:38:30.008Z,1.80
2023-05-20T22:40:40.848Z,1.70
2023-05-20T22:42:49.438Z,1.60
2023-05-20T22:44:58.485Z,1.70
2023-05-20T22:47:07.651Z,1.73
2023-05-20T22:49:18.966Z,1.93
2023-05-20T22:51:27.552Z,2.27
2023-05-20T22:53:36.338Z,2.00
2023-05-20T22:55:46.958Z,1.57
2023-05-20T22:57:55.680Z,1.73
2023-05-20T23:00:07.960Z,1.70
2023-05-20T23:02:17.323Z,1.90
2023-05-20T23:04:26.194Z,2.20
2023-05-20T23:06:38.528Z,1.83
2023-05-20T23:08:47.644Z,2.00
2023-05-20T23:10:58.356Z,2.10
2023-05-20T23:13:07.392Z,1.83
2023-05-20T23:15:16.593Z,1.87
2023-05-20T23:17:25.350Z,1.97
2023-05-20T23:19:34.614Z,2.17
2023-05-20T23:21:44.350Z,1.87
2023-05-20T23:23:53.200Z,1.90
2023-05-20T23:26:05.253Z,1.70
2023-05-20T23:28:13.986Z,1.77
2023-05-20T23:30:23.052Z,1.90
2023-05-20T23:32:32.404Z,2.00
2023-05-20T23:34:43.954Z,1.70
2023-05-20T23:36:53.107Z,1.80
2023-05-20T23:39:02.651Z,1.90
2023-05-20T23:41:13.549Z,2.20
2023-05-20T23:43:22.497Z,2.07
2023-05-20T23:45:31.200Z,1.80
2023-05-20T23:47:40.175Z,2.07
2023-05-20T23:49:49.599Z,1.90
2023-05-20T23:51:58.579Z,2.00
2023-05-20T23:54:07.629Z,2.00
2023-05-20T23:56:18.417Z,2.20
2023-05-20T23:58:26.954Z,1.90
